createdAt,value
2023-03-05T00:00:54.093Z,13.20
2023-03-05T00:03:40.847Z,13.23
2023-03-05T00:06:27.384Z,13.43
2023-03-05T00:09:13.944Z,14.67
2023-03-05T00:12:00.461Z,12.30
2023-03-05T00:14:47.009Z,13.07
2023-03-05T00:17:33.553Z,13.63
2023-03-05T00:20:20.122Z,13.27
2023-03-05T00:23:06.727Z,14.17
2023-03-05T00:25:53.331Z,13.93
2023-03-05T00:28:39.900Z,13.70
2023-03-05T00:31:26.503Z,13.87
2023-03-05T00:34:13.110Z,14.43
2023-03-05T00:36:59.664Z,12.87
2023-03-05T00:39:46.154Z,14.23
2023-03-05T00:42:32.692Z,13.73
2023-03-05T00:45:19.227Z,13.10
2023-03-05T00:48:05.763Z,13.53
2023-03-05T00:50:52.352Z,12.70
2023-03-05T00:53:38.872Z,14.40
2023-03-05T00:56:25.426Z,15.13
2023-03-05T00:59:11.954Z,14.43
2023-03-05T01:01:58.533Z,14.60
2023-03-05T01:04:45.115Z,14.17
2023-03-05T01:07:31.649Z,14.67
2023-03-05T01:10:18.184Z,16.17
2023-03-05T01:13:04.745Z,14.30
2023-03-05T01:15:51.337Z,15.27
2023-03-05T01:18:38.066Z,16.43
2023-03-05T01:21:24.593Z,16.10
2023-03-05T01:24:12.151Z,15.53
2023-03-05T01:26:58.673Z,14.40
2023-03-05T01:29:45.216Z,14.40
2023-03-05T01:32:32.337Z,14.50
2023-03-05T01:35:19.738Z,14.17
2023-03-05T01:38:06.312Z,13.67
2023-03-05T01:40:52.835Z,13.27
2023-03-05T01:43:39.400Z,13.13
2023-03-05T01:46:25.923Z,13.77
2023-03-05T01:49:12.497Z,13.73
2023-03-05T01:51:59.019Z,14.00
2023-03-05T01:54:45.540Z,13.90
2023-03-05T01:57:32.079Z,15.30
2023-03-05T02:00:18.644Z,13.57
2023-03-05T02:03:05.162Z,13.20
2023-03-05T02:05:51.722Z,13.73
2023-03-05T02:08:38.245Z,12.87
2023-03-05T02:11:24.795Z,13.90
2023-03-05T02:14:11.331Z,13.80
2023-03-05T02:16:57.860Z,14.03
2023-03-05T02:19:44.558Z,14.40
2023-03-05T02:22:31.084Z,13.77
2023-03-05T02:25:17.665Z,14.20
2023-03-05T02:28:04.191Z,14.93
2023-03-05T02:30:50.758Z,13.87
2023-03-05T02:33:37.284Z,13.33
2023-03-05T02:36:23.834Z,14.37
2023-03-05T02:39:10.315Z,14.37
2023-03-05T02:41:56.876Z,14.60
2023-03-05T02:44:43.398Z,14.20
2023-03-05T02:47:29.899Z,14.67
2023-03-05T02:50:16.464Z,14.13
2023-03-05T02:53:02.983Z,14.37
2023-03-05T02:55:49.554Z,14.50
2023-03-05T02:58:36.090Z,15.10
2023-03-05T03:01:22.714Z,14.67
2023-03-05T03:04:09.258Z,14.40
2023-03-05T03:06:55.808Z,15.50
2023-03-05T03:09:42.343Z,14.70
2023-03-05T03:12:28.917Z,14.87
2023-03-05T03:15:15.456Z,14.07
2023-03-05T03:18:01.990Z,14.30
2023-03-05T03:20:48.536Z,14.57
2023-03-05T03:23:35.070Z,14.67
2023-03-05T03:26:21.607Z,13.97
2023-03-05T03:29:08.164Z,13.47
2023-03-05T03:31:54.673Z,14.20
2023-03-05T03:34:41.163Z,13.73
2023-03-05T03:37:27.715Z,13.47
2023-03-05T03:40:14.214Z,12.80
2023-03-05T03:43:00.780Z,13.43
2023-03-05T03:45:47.346Z,13.03
2023-03-05T03:48:33.923Z,14.00
2023-03-05T03:51:20.443Z,13.20
2023-03-05T03:54:07.035Z,13.67
2023-03-05T03:56:53.556Z,13.97
2023-03-05T03:59:40.096Z,13.50
2023-03-05T04:02:26.699Z,13.83
2023-03-05T04:05:14.262Z,14.47
2023-03-05T04:08:02.285Z,13.40
2023-03-05T04:10:48.786Z,13.80
2023-03-05T04:13:35.314Z,11.97
2023-03-05T04:16:21.893Z,13.67
2023-03-05T04:19:08.495Z,12.73
2023-03-05T04:21:55.209Z,13.63
2023-03-05T04:24:41.736Z,15.07
2023-03-05T04:27:28.297Z,14.93
2023-03-05T04:30:14.813Z,15.13
2023-03-05T04:33:01.365Z,14.73
2023-03-05T04:35:48.017Z,15.60
2023-03-05T04:38:34.610Z,16.13
2023-03-05T04:41:21.159Z,16.50
2023-03-05T04:44:07.739Z,15.87
2023-03-05T04:46:54.273Z,15.93
2023-03-05T04:49:40.798Z,16.77
2023-03-05T04:52:27.320Z,15.60
2023-03-05T04:55:13.874Z,16.63
2023-03-05T04:58:00.347Z,16.33
2023-03-05T05:00:46.999Z,16.83
2023-03-05T05:03:33.532Z,16.10
2023-03-05T05:06:20.070Z,16.90
2023-03-05T05:09:06.597Z,16.00
2023-03-05T05:11:53.155Z,17.40
2023-03-05T05:14:39.672Z,17.33
2023-03-05T05:17:26.214Z,17.13
2023-03-05T05:20:12.749Z,17.17
2023-03-05T05:22:59.309Z,16.33
2023-03-05T05:25:45.867Z,15.90
2023-03-05T05:28:32.369Z,18.17
2023-03-05T05:31:19.090Z,17.07
2023-03-05T05:34:05.613Z,18.13
2023-03-05T05:36:52.128Z,16.90
2023-03-05T05:39:38.652Z,16.40
2023-03-05T05:42:25.174Z,18.37
2023-03-05T05:45:13.036Z,17.07
2023-03-05T05:47:59.577Z,19.40
2023-03-05T05:50:47.613Z,18.97
2023-03-05T05:53:34.134Z,23.30
2023-03-05T05:56:20.768Z,17.80
2023-03-05T05:59:07.324Z,20.33
2023-03-05T06:01:53.880Z,19.13
2023-03-05T06:04:40.577Z,27.87
2023-03-05T06:07:27.113Z,19.23
2023-03-05T06:10:13.652Z,17.90
2023-03-05T06:13:00.190Z,19.80
2023-03-05T06:15:46.750Z,30.23
2023-03-05T06:18:33.264Z,19.23
2023-03-05T06:21:19.865Z,24.40
2023-03-05T06:24:06.407Z,26.03
2023-03-05T06:26:52.974Z,20.83
2023-03-05T06:29:39.487Z,20.70
2023-03-05T06:32:26.117Z,19.87
2023-03-05T06:35:12.663Z,19.63
2023-03-05T06:37:59.211Z,20.63
2023-03-05T06:40:45.717Z,18.77
2023-03-05T06:43:32.232Z,18.63
2023-03-05T06:46:18.841Z,19.43
2023-03-05T06:49:06.482Z,20.47
2023-03-05T06:51:53.017Z,18.07
2023-03-05T06:54:39.535Z,21.07
2023-03-05T06:57:26.079Z,21.03
2023-03-05T07:00:12.588Z,20.47
2023-03-05T07:02:59.143Z,20.00
2023-03-05T07:05:45.775Z,20.67
2023-03-05T07:08:32.326Z,22.57
2023-03-05T07:11:18.827Z,21.23
2023-03-05T07:14:05.375Z,21.20
2023-03-05T07:16:51.861Z,19.30
2023-03-05T07:19:38.375Z,22.47
2023-03-05T07:22:25.910Z,22.33
2023-03-05T07:25:12.418Z,25.10
2023-03-05T07:27:58.964Z,19.60
2023-03-05T07:30:45.526Z,20.73
2023-03-05T07:33:32.096Z,21.80
2023-03-05T07:36:18.645Z,22.00
2023-03-05T07:39:05.202Z,21.13
2023-03-05T07:41:51.769Z,19.20
2023-03-05T07:44:38.371Z,20.73
2023-03-05T07:47:24.915Z,20.40
2023-03-05T07:50:11.490Z,21.30
2023-03-05T07:52:58.038Z,20.33
2023-03-05T07:55:44.577Z,17.07
2023-03-05T07:58:31.099Z,19.70
2023-03-05T08:01:17.672Z,19.00
2023-03-05T08:04:04.249Z,22.23
2023-03-05T08:06:50.867Z,19.17
2023-03-05T08:09:37.403Z,18.07
2023-03-05T08:12:23.957Z,17.90
2023-03-05T08:15:10.459Z,20.10
2023-03-05T08:17:56.987Z,17.97
2023-03-05T08:20:43.523Z,17.40
2023-03-05T08:23:30.047Z,17.77
2023-03-05T08:26:16.789Z,18.53
2023-03-05T08:29:03.468Z,16.57
2023-03-05T08:31:50.004Z,17.13
2023-03-05T08:34:36.561Z,15.83
2023-03-05T08:37:23.153Z,16.83
2023-03-05T08:40:09.650Z,34.70
2023-03-05T08:42:56.207Z,21.00
2023-03-05T08:45:42.712Z,14.70
2023-03-05T08:48:29.243Z,19.67
2023-03-05T08:51:15.753Z,14.53
2023-03-05T08:54:02.295Z,15.97
2023-03-05T08:56:48.822Z,21.27
2023-03-05T08:59:35.344Z,14.47
2023-03-05T09:02:21.830Z,15.20
2023-03-05T09:05:08.373Z,14.57
2023-03-05T09:07:54.900Z,16.90
2023-03-05T09:10:41.426Z,23.30
2023-03-05T09:13:27.973Z,16.77
2023-03-05T09:16:14.501Z,15.10
2023-03-05T09:19:01.073Z,13.60
2023-03-05T09:21:47.641Z,13.37
2023-03-05T09:24:34.194Z,14.23
2023-03-05T09:27:20.735Z,14.00
2023-03-05T09:30:07.269Z,13.20
2023-03-05T09:32:53.795Z,14.20
2023-03-05T09:35:40.388Z,12.73
2023-03-05T09:38:26.909Z,13.13
2023-03-05T09:41:13.431Z,12.87
2023-03-05T09:43:59.954Z,12.20
2023-03-05T09:46:46.476Z,12.37
2023-03-05T09:49:33.148Z,13.17
2023-03-05T09:52:19.705Z,13.27
2023-03-05T09:55:06.333Z,12.97
2023-03-05T09:57:54.381Z,11.63
2023-03-05T10:00:40.930Z,12.60
2023-03-05T10:03:27.511Z,12.50
2023-03-05T10:06:14.106Z,11.63
2023-03-05T10:09:00.626Z,12.13
2023-03-05T10:11:47.131Z,10.93
2023-03-05T10:14:34.698Z,12.80
2023-03-05T10:17:21.230Z,12.10
2023-03-05T10:20:07.818Z,10.63
2023-03-05T10:22:54.364Z,11.00
2023-03-05T10:25:40.856Z,10.23
2023-03-05T10:28:27.468Z,9.40
2023-03-05T10:31:13.959Z,11.17
2023-03-05T10:34:00.502Z,10.13
2023-03-05T10:36:47.063Z,11.60
2023-03-05T10:39:33.583Z,9.10
2023-03-05T10:42:26.107Z,10.30
2023-03-05T10:45:14.070Z,9.03
2023-03-05T10:48:01.435Z,8.97
2023-03-05T10:50:48.077Z,8.27
2023-03-05T10:53:34.627Z,7.77
2023-03-05T10:56:21.302Z,7.87
2023-03-05T10:59:07.820Z,8.47
2023-03-05T11:01:54.376Z,7.43
2023-03-05T11:04:40.856Z,7.23
2023-03-05T11:07:27.386Z,6.33
2023-03-05T11:10:13.876Z,6.53
2023-03-05T11:13:00.414Z,6.60
2023-03-05T11:15:46.986Z,5.80
2023-03-05T11:18:33.526Z,5.70
2023-03-05T11:21:20.058Z,5.97
2023-03-05T11:24:06.596Z,6.77
2023-03-05T11:26:53.264Z,5.53
2023-03-05T11:29:39.971Z,6.20
2023-03-05T11:32:26.602Z,6.87
2023-03-05T11:35:13.179Z,6.23
2023-03-05T11:37:59.664Z,5.40
2023-03-05T11:40:46.224Z,6.33
2023-03-05T11:43:33.442Z,6.20
2023-03-05T11:46:19.972Z,6.13
2023-03-05T11:49:06.581Z,5.57
2023-03-05T11:51:53.114Z,6.07
2023-03-05T11:54:39.723Z,6.33
2023-03-05T11:57:26.202Z,5.80
2023-03-05T12:00:12.870Z,6.50
2023-03-05T12:02:59.411Z,6.50
2023-03-05T12:05:45.974Z,24.40
2023-03-05T12:08:32.542Z,7.57
2023-03-05T12:11:19.026Z,10.77
2023-03-05T12:14:05.648Z,13.70
2023-03-05T12:16:52.249Z,10.00
2023-03-05T12:19:38.798Z,9.70
2023-03-05T12:22:25.329Z,8.07
2023-03-05T12:25:11.875Z,6.00
2023-03-05T12:27:58.378Z,9.10
2023-03-05T12:30:44.969Z,6.27
2023-03-05T12:33:31.455Z,5.67
2023-03-05T12:36:18.002Z,10.20
2023-03-05T12:39:04.528Z,6.03
2023-03-05T12:41:51.097Z,7.67
2023-03-05T12:44:37.687Z,7.43
2023-03-05T12:47:24.342Z,4.93
2023-03-05T12:50:10.874Z,6.40
2023-03-05T12:52:57.389Z,6.70
2023-03-05T12:55:43.870Z,6.53
2023-03-05T12:58:30.436Z,7.27
2023-03-05T13:01:16.990Z,9.73
2023-03-05T13:04:03.641Z,7.33
2023-03-05T13:06:50.230Z,14.70
2023-03-05T13:09:36.752Z,19.03
2023-03-05T13:12:23.341Z,9.33
2023-03-05T13:15:10.064Z,7.83
2023-03-05T13:17:56.544Z,7.37
2023-03-05T13:20:43.137Z,8.80
2023-03-05T13:23:29.687Z,8.83
2023-03-05T13:26:16.195Z,7.13
2023-03-05T13:29:02.705Z,8.50
2023-03-05T13:31:49.291Z,7.67
2023-03-05T13:34:46.721Z,7.20
2023-03-05T13:37:33.971Z,7.33
2023-03-05T13:40:20.461Z,7.03
2023-03-05T13:43:07.000Z,6.27
2023-03-05T13:45:53.550Z,7.60
2023-03-05T13:48:40.148Z,7.80
2023-03-05T13:51:26.696Z,7.60
2023-03-05T13:54:13.346Z,8.47
2023-03-05T13:56:59.840Z,7.73
2023-03-05T13:59:46.340Z,7.63
2023-03-05T14:02:33.833Z,7.20
2023-03-05T14:05:20.356Z,7.27
2023-03-05T14:08:06.839Z,7.40
2023-03-05T14:10:53.458Z,6.93
2023-03-05T14:13:40.025Z,7.60
2023-03-05T14:16:26.612Z,7.97
2023-03-05T14:19:13.142Z,7.80
2023-03-05T14:21:59.645Z,8.20
2023-03-05T14:24:46.184Z,7.50
2023-03-05T14:27:32.714Z,7.90
2023-03-05T14:30:19.244Z,8.37
2023-03-05T14:33:05.801Z,7.70
2023-03-05T14:35:52.410Z,7.67
2023-03-05T14:38:38.978Z,7.70
2023-03-05T14:41:25.457Z,8.33
2023-03-05T14:44:13.522Z,8.40
2023-03-05T14:47:00.020Z,8.20
2023-03-05T14:49:46.531Z,8.10
2023-03-05T14:52:34.557Z,7.83
2023-03-05T14:55:21.042Z,8.07
2023-03-05T14:58:07.564Z,7.80
2023-03-05T15:00:54.088Z,7.03
2023-03-05T15:03:40.591Z,7.40
2023-03-05T15:06:27.167Z,7.77
2023-03-05T15:09:13.706Z,7.00
2023-03-05T15:12:00.186Z,6.90
2023-03-05T15:14:47.718Z,7.40
2023-03-05T15:17:34.251Z,6.93
2023-03-05T15:20:20.795Z,6.97
2023-03-05T15:23:07.321Z,7.53
2023-03-05T15:25:53.873Z,7.00
2023-03-05T15:28:40.373Z,7.17
2023-03-05T15:31:26.893Z,7.93
2023-03-05T15:34:13.570Z,6.40
2023-03-05T15:37:00.164Z,7.00
2023-03-05T15:39:46.692Z,7.50
2023-03-05T15:42:33.173Z,7.40
2023-03-05T15:45:19.689Z,7.43
2023-03-05T15:48:06.175Z,7.93
2023-03-05T15:50:52.733Z,7.53
2023-03-05T15:53:39.232Z,7.80
2023-03-05T15:56:25.778Z,7.67
2023-03-05T15:59:12.299Z,7.73
2023-03-05T16:01:58.950Z,7.40
2023-03-05T16:04:45.460Z,8.27
2023-03-05T16:07:33.004Z,7.60
2023-03-05T16:10:19.603Z,8.50
2023-03-05T16:13:06.140Z,8.60
2023-03-05T16:15:52.677Z,9.23
2023-03-05T16:18:39.279Z,8.40
2023-03-05T16:21:25.818Z,8.80
2023-03-05T16:24:12.409Z,8.30
2023-03-05T16:26:59.043Z,8.80
2023-03-05T16:29:45.568Z,8.60
2023-03-05T16:32:33.091Z,9.50
2023-03-05T16:35:19.830Z,9.23
2023-03-05T16:38:09.051Z,9.47
2023-03-05T16:41:07.820Z,9.83
2023-03-05T16:43:54.971Z,9.77
2023-03-05T16:46:41.654Z,10.07
2023-03-05T16:49:28.171Z,9.33
2023-03-05T16:52:19.185Z,9.57
2023-03-05T16:55:06.534Z,12.47
2023-03-05T16:57:53.150Z,9.50
2023-03-05T17:00:39.664Z,10.47
2023-03-05T17:03:26.223Z,11.60
2023-03-05T17:06:12.700Z,10.60
2023-03-05T17:08:59.236Z,9.97
2023-03-05T17:11:45.766Z,10.23
2023-03-05T17:14:32.405Z,9.60
2023-03-05T17:17:18.991Z,9.47
2023-03-05T17:20:05.649Z,10.00
2023-03-05T17:22:52.191Z,10.47
2023-03-05T17:25:38.703Z,26.77
2023-03-05T17:28:25.232Z,12.07
2023-03-05T17:31:11.738Z,10.03
2023-03-05T17:33:58.235Z,10.03
2023-03-05T17:36:44.788Z,10.07
2023-03-05T17:39:31.288Z,10.87
2023-03-05T17:42:18.788Z,10.60
2023-03-05T17:45:05.262Z,10.80
2023-03-05T17:47:51.796Z,10.13
2023-03-05T17:50:38.330Z,10.27
2023-03-05T17:53:24.811Z,9.77
2023-03-05T17:56:11.320Z,9.90
2023-03-05T17:58:57.816Z,11.37
2023-03-05T18:01:44.321Z,10.83
2023-03-05T18:04:30.835Z,9.33
2023-03-05T18:07:17.387Z,10.30
2023-03-05T18:10:03.870Z,8.93
2023-03-05T18:12:50.367Z,12.10
2023-03-05T18:15:36.857Z,9.73
2023-03-05T18:18:23.358Z,8.93
2023-03-05T18:21:09.879Z,9.53
2023-03-05T18:23:56.437Z,8.80
2023-03-05T18:26:42.909Z,8.67
2023-03-05T18:29:29.427Z,8.90
2023-03-05T18:32:15.955Z,8.37
2023-03-05T18:35:02.556Z,7.40
2023-03-05T18:37:50.132Z,7.50
2023-03-05T18:40:36.689Z,7.63
2023-03-05T18:43:23.194Z,7.93
2023-03-05T18:46:09.823Z,7.07
2023-03-05T18:48:56.365Z,6.87
2023-03-05T18:51:42.878Z,7.80
2023-03-05T18:54:29.378Z,5.87
2023-03-05T18:57:15.943Z,7.03
2023-03-05T19:00:02.526Z,6.43
2023-03-05T19:02:49.070Z,6.70
2023-03-05T19:05:35.667Z,6.47
2023-03-05T19:08:22.107Z,6.57
2023-03-05T19:11:08.720Z,5.67
2023-03-05T19:13:55.510Z,5.97
2023-03-05T19:16:42.050Z,5.50
2023-03-05T19:19:28.630Z,5.50
2023-03-05T19:22:15.171Z,4.83
2023-03-05T19:25:01.664Z,5.10
2023-03-05T19:27:48.234Z,4.40
2023-03-05T19:30:35.723Z,4.70
2023-03-05T19:33:24.134Z,5.13
2023-03-05T19:36:11.547Z,5.30
2023-03-05T19:38:58.054Z,5.13
2023-03-05T19:41:44.595Z,5.30
2023-03-05T19:44:31.075Z,4.70
2023-03-05T19:47:17.737Z,5.20
2023-03-05T19:50:04.224Z,4.10
2023-03-05T19:52:50.759Z,4.10
2023-03-05T19:55:37.284Z,3.60
2023-03-05T19:58:23.806Z,4.17
2023-03-05T20:01:11.317Z,4.17
2023-03-05T20:03:57.815Z,3.80
2023-03-05T20:06:44.502Z,3.27
2023-03-05T20:09:31.018Z,2.90
2023-03-05T20:12:17.616Z,3.13
2023-03-05T20:15:04.095Z,3.00
2023-03-05T20:17:50.624Z,2.97
2023-03-05T20:20:37.126Z,2.80
2023-03-05T20:23:23.642Z,2.87
2023-03-05T20:26:10.166Z,3.03
2023-03-05T20:28:56.657Z,3.40
2023-03-05T20:31:43.303Z,2.47
2023-03-05T20:34:29.826Z,2.90
2023-03-05T20:37:16.424Z,2.17
2023-03-05T20:40:03.135Z,2.60
2023-03-05T20:42:51.214Z,2.23
2023-03-05T20:45:37.727Z,2.40
2023-03-05T20:48:24.233Z,2.73
2023-03-05T20:51:10.704Z,2.70
2023-03-05T20:53:57.211Z,2.53
2023-03-05T20:56:43.767Z,2.67
2023-03-05T20:59:30.311Z,2.90
2023-03-05T21:02:16.818Z,2.40
2023-03-05T21:05:03.358Z,2.30
2023-03-05T21:07:49.942Z,2.47
2023-03-05T21:10:36.471Z,2.73
2023-03-05T21:13:23.013Z,2.53
2023-03-05T21:16:09.634Z,2.17
2023-03-05T21:18:56.184Z,2.57
2023-03-05T21:21:42.686Z,2.13
2023-03-05T21:24:29.182Z,2.50
2023-03-05T21:27:15.723Z,2.33
2023-03-05T21:30:02.314Z,2.40
2023-03-05T21:32:48.988Z,2.73
2023-03-05T21:35:35.540Z,2.67
2023-03-05T21:38:22.059Z,2.77
2023-03-05T21:41:08.602Z,2.33
2023-03-05T21:43:55.135Z,3.00
2023-03-05T21:46:41.691Z,3.23
2023-03-05T21:49:28.176Z,2.47
2023-03-05T21:52:14.689Z,2.50
2023-03-05T21:55:01.225Z,2.80
2023-03-05T21:57:47.728Z,2.33
2023-03-05T22:00:34.204Z,2.90
2023-03-05T22:03:20.700Z,2.37
2023-03-05T22:06:07.215Z,2.63
2023-03-05T22:08:53.747Z,2.73
2023-03-05T22:11:40.223Z,2.50
2023-03-05T22:14:26.727Z,2.43
2023-03-05T22:17:13.255Z,2.63
2023-03-05T22:19:59.751Z,2.50
2023-03-05T22:22:46.236Z,2.73
2023-03-05T22:25:32.735Z,3.00
2023-03-05T22:28:19.251Z,3.00
2023-03-05T22:31:05.763Z,3.27
2023-03-05T22:33:52.302Z,2.87
2023-03-05T22:36:38.823Z,3.00
2023-03-05T22:39:25.364Z,2.53
2023-03-05T22:42:11.987Z,2.90
2023-03-05T22:44:58.487Z,3.03
2023-03-05T22:47:45.022Z,2.67
2023-03-05T22:50:31.510Z,2.90
2023-03-05T22:53:18.008Z,3.40
2023-03-05T22:56:04.523Z,2.80
2023-03-05T22:58:51.084Z,3.10
2023-03-05T23:01:37.563Z,2.97
2023-03-05T23:04:24.147Z,2.80
2023-03-05T23:07:10.664Z,3.10
2023-03-05T23:09:57.228Z,2.93
2023-03-05T23:12:43.765Z,3.30
2023-03-05T23:15:34.832Z,3.67
2023-03-05T23:18:21.367Z,3.43
2023-03-05T23:21:07.868Z,2.93
2023-03-05T23:23:54.376Z,3.40
2023-03-05T23:26:40.884Z,3.53
2023-03-05T23:29:27.392Z,3.70
2023-03-05T23:32:13.913Z,4.00
2023-03-05T23:35:00.442Z,3.43
2023-03-05T23:37:46.925Z,3.70
2023-03-05T23:40:33.414Z,3.53
2023-03-05T23:43:19.939Z,3.50
2023-03-05T23:46:06.454Z,3.67
2023-03-05T23:48:52.942Z,3.20
2023-03-05T23:51:39.491Z,3.60
2023-03-05T23:54:25.981Z,3.37
2023-03-05T23:57:12.499Z,3.43
2023-03-05T23:59:58.983Z,3.60
